Observations for WASHINGTON NATIONAL, VA (DCA)

KDCA 112152Z 21008KT 10SM CLR 06/M05 A3003 RMK AO2 SLP170 T00561050 
KDCA 112052Z 23008KT 10SM CLR 07/M07 A3004 RMK AO2 SLP171 T00721072 55019   
KDCA 111952Z 23004KT 10SM CLR 08/M08 A3004 RMK AO2 SLP170 T00781083 
KDCA 111852Z 13003KT 10SM CLR 07/M06 A3005 RMK AO2 SLP176 T00671061 
KDCA 111752Z 00000KT 10SM CLR 06/M06 A3009 RMK AO2 SLP190 T00561056 10056 21022 58034   
KDCA 111652Z 07003KT 10SM CLR 04/M05 A3014 RMK AO2 SLP205 T00441050 
KDCA 111552Z 05004KT 10SM CLR 04/M04 A3017 RMK AO2 SLP215 T00391039 
KDCA 111452Z 02005KT 10SM CLR 02/M04 A3020 RMK AO2 SLP224 T00221044 53001 $ 
KDCA 111352Z 36005KT 10SM FEW250 01/M04 A3019 RMK AO2 SLP223 T00061044  
KDCA 111252Z 34005KT 10SM FEW160 FEW250 M02/M06 A3019 RMK AO2 SLP221 T10171061  
KDCA 111152Z 33006KT 10SM FEW150 M02/M06 A3019 RMK AO2 SLP223 T10221061 11006 21033 55000   
KDCA 111052Z 34007KT 10SM FEW200 M02/M06 A3019 RMK AO2 SLP223 T10221061 
KDCA 110952Z 34005KT 10SM FEW200 M02/M06 A3018 RMK AO2 SLP220 T10221061 
KDCA 110852Z 33006KT 10SM CLR M02/M06 A3019 RMK AO2 SLP223 T10221061 58004  
KDCA 110752Z 33004KT 10SM FEW250 M02/M06 A3021 RMK AO2 SLP229 T10171061 
KDCA 110652Z 33005KT 10SM FEW250 M01/M06 A3021 RMK AO2 SLP228 T10111061 
KDCA 110552Z 33005KT 10SM FEW250 M01/M06 A3020 RMK AO2 SLP227 T10061056 10028 21006 58003   
KDCA 110452Z 35005KT 10SM SCT250 M01/M06 A3022 RMK AO2 SLP231 T10061056 400501011   
KDCA 110352Z 34004KT 10SM SCT250 M01/M06 A3021 RMK AO2 SLP230 T10061056 
KDCA 110252Z 34008KT 10SM FEW250 01/M06 A3021 RMK AO2 SLP229 T00061056 50009
KDCA 110152Z 02006KT 10SM FEW250 01/M05 A3022 RMK AO2 SLP231 T00111050  
KDCA 110052Z 02010KT 10SM FEW250 02/M05 A3020 RMK AO2 SLP227 T00221050  
KDCA 102352Z 02009KT 10SM FEW250 03/M05 A3018 RMK AO2 SLP221 T00281050 10050 20022 51016
KDCA 102252Z 01009KT 10SM SCT250 02/M05 A3017 RMK AO2 SLP216 T00221050  
KDCA 102152Z 36012KT 10SM BKN250 03/M05 A3015 RMK AO2 SLP210 T00281050